Time;durP1;ratioP1;P1;durP2;ratioP2;P2;SDS_P1;SDS_P2;PMS_P1;PMS_P2;Temp;Humidity;BMP_temperature;BMP_pressure;BME280_temperature;BME280_humidity;BME280_pressure;Samples;Min_cycle;Max_cycle;Signal;HPM_P1;HPM_P2
2021/04/14 00:01:39;;;;;;;7.82;5.22;;;;;;;0.76;71.85;103124.75;5265372;28;20073;-71
2021/04/14 00:04:11;;;;;;;9.48;5.75;;;;;;;0.72;71.85;103118.78;5264217;28;20130;-71
2021/04/14 00:06:43;;;;;;;7.28;4.85;;;;;;;0.69;72.13;103127.41;5264820;28;20119;-70
2021/04/14 00:09:14;;;;;;;9.00;5.60;;;;;;;0.64;72.67;103121.41;5265411;28;20040;-71
2021/04/14 00:11:45;;;;;;;9.45;5.65;;;;;;;0.61;72.27;103120.59;5264935;28;20070;-68
2021/04/14 00:14:17;;;;;;;7.05;4.40;;;;;;;0.62;71.53;103133.47;5266038;28;20040;-70
2021/04/14 00:16:48;;;;;;;6.28;4.35;;;;;;;0.54;71.36;103119.78;5265972;28;20087;-70
2021/04/14 00:19:20;;;;;;;11.15;5.20;;;;;;;0.45;72.11;103128.41;5266475;28;20044;-70
2021/04/14 00:21:51;;;;;;;7.22;5.07;;;;;;;0.31;72.53;103112.19;5265871;28;20461;-71
2021/04/14 00:24:23;;;;;;;7.00;4.63;;;;;;;0.34;73.09;103126.75;5266322;28;20119;-71
2021/04/14 00:26:54;;;;;;;9.93;4.80;;;;;;;0.26;72.06;103123.34;5245083;28;20044;-70
2021/04/14 00:29:25;;;;;;;8.70;5.50;;;;;;;0.21;72.20;103120.81;5263905;28;20175;-71
2021/04/14 00:31:57;;;;;;;6.72;5.03;;;;;;;0.18;71.87;103113.94;5264945;28;20033;-70
2021/04/14 00:34:29;;;;;;;9.73;5.65;;;;;;;0.12;72.60;103108.84;5266484;28;20490;-70
2021/04/14 00:37:00;;;;;;;7.93;5.28;;;;;;;0.16;72.20;103120.00;5265418;28;20041;-71
2021/04/14 00:39:31;;;;;;;9.65;5.57;;;;;;;0.19;73.27;103122.53;5264104;28;20040;-70
2021/04/14 00:42:03;;;;;;;8.18;5.05;;;;;;;0.15;73.02;103121.72;5264039;28;20021;-70
2021/04/14 00:44:34;;;;;;;9.40;5.22;;;;;;;0.11;72.40;103116.56;5266202;28;20060;-70
2021/04/14 00:47:06;;;;;;;8.35;5.78;;;;;;;0.04;72.90;103118.31;5246319;28;20043;-70
2021/04/14 00:49:37;;;;;;;11.27;5.88;;;;;;;0.10;73.40;103110.53;5263485;28;20036;-70
2021/04/14 00:52:09;;;;;;;9.60;5.55;;;;;;;0.04;73.10;103113.16;5264655;28;20049;-71
2021/04/14 00:54:40;;;;;;;12.68;6.80;;;;;;;-0.04;73.55;103120.06;5265802;28;20039;-71
2021/04/14 00:57:11;;;;;;;11.30;6.63;;;;;;;-0.11;73.77;103115.81;5265112;28;20036;-70
2021/04/14 00:59:42;;;;;;;10.93;6.30;;;;;;;-0.18;72.87;103109.81;5266318;28;20039;-71
2021/04/14 01:02:14;;;;;;;11.45;6.40;;;;;;;-0.22;73.38;103110.69;5265063;28;20107;-71
2021/04/14 01:04:45;;;;;;;8.20;5.70;;;;;;;-0.19;74.17;103108.13;5265252;28;20036;-70
2021/04/14 01:07:16;;;;;;;9.85;5.70;;;;;;;-0.19;73.31;103109.81;5262844;28;20037;-71
2021/04/14 01:09:47;;;;;;;13.50;6.32;;;;;;;-0.12;73.47;103112.34;5264080;28;20119;-70
2021/04/14 01:12:19;;;;;;;10.48;5.95;;;;;;;-0.11;73.59;103101.22;5263631;28;20029;-70
2021/04/14 01:14:50;;;;;;;10.05;5.90;;;;;;;-0.13;73.69;103104.63;5260026;28;20328;-70
2021/04/14 01:17:21;;;;;;;9.73;5.53;;;;;;;-0.16;73.74;103087.47;5265822;28;20028;-71
2021/04/14 01:19:52;;;;;;;14.13;6.07;;;;;;;-0.09;73.31;103089.16;5264296;28;20044;-70
2021/04/14 01:22:24;;;;;;;7.07;5.25;;;;;;;-0.01;73.29;103091.69;5264864;28;20113;-70
2021/04/14 01:24:55;;;;;;;6.57;4.75;;;;;;;0.03;72.24;103089.97;5264987;28;20052;-70
2021/04/14 01:27:26;;;;;;;9.95;5.50;;;;;;;-0.04;73.61;103087.44;5261461;28;20081;-70
2021/04/14 01:29:58;;;;;;;9.13;4.60;;;;;;;0.03;73.02;103093.41;5264075;28;20055;-70
2021/04/14 01:32:29;;;;;;;7.30;4.28;;;;;;;0.01;73.58;103091.72;5264191;28;20044;-71
2021/04/14 01:35:00;;;;;;;6.38;4.57;;;;;;;-0.04;74.17;103089.13;5264611;28;20068;-70
2021/04/14 01:37:32;;;;;;;6.45;4.45;;;;;;;0.00;73.48;103090.84;5263796;28;20090;-70
2021/04/14 01:40:03;;;;;;;5.97;4.47;;;;;;;0.03;73.34;103090.81;5265802;28;20482;-68
2021/04/14 01:42:35;;;;;;;6.15;4.47;;;;;;;-0.02;74.15;103095.16;5264078;28;20028;-70
2021/04/14 01:45:08;;;;;;;7.63;4.78;;;;;;;-0.05;74.12;103090.84;5266482;28;20078;-71
2021/04/14 01:47:39;;;;;;;;;;;;;;;0.18;72.04;103095.91;5269672;28;20315;-71
2021/04/14 01:50:11;;;;;;;6.87;4.20;;;;;;;0.03;73.07;103095.97;5266392;28;19975;-69
2021/04/14 01:52:42;;;;;;;6.40;4.63;;;;;;;0.05;74.14;103099.41;5266445;28;20279;-71
2021/04/14 01:55:14;;;;;;;7.80;5.05;;;;;;;0.03;73.53;103095.97;5267272;28;20024;-71
2021/04/14 01:57:47;;;;;;;6.80;4.65;;;;;;;-0.01;74.50;103087.41;5269404;28;20108;-69
2021/04/14 02:00:21;;;;;;;8.20;4.88;;;;;;;-0.04;73.56;103091.72;5265225;28;20025;-70
2021/04/14 02:02:53;;;;;;;9.90;5.20;;;;;;;-0.06;74.57;103086.56;5266916;28;20407;-71
2021/04/14 02:05:27;;;;;;;8.68;4.88;;;;;;;-0.02;74.42;103087.41;5269753;28;20028;-71
2021/04/14 02:08:00;;;;;;;6.88;5.03;;;;;;;-0.02;73.74;103084.84;5269568;28;20115;-71
2021/04/14 02:10:33;;;;;;;7.88;5.05;;;;;;;0.01;74.24;103083.97;5266443;28;20024;-71
2021/04/14 02:13:12;;;;;;;9.23;4.88;;;;;;;0.03;74.63;103079.66;5267674;28;20028;-69
2021/04/14 02:15:44;;;;;;;11.35;4.95;;;;;;;0.01;74.57;103076.25;5267470;28;20036;-70
2021/04/14 02:18:15;;;;;;;8.00;5.57;;;;;;;0.04;74.49;103082.25;5268546;28;20028;-70
2021/04/14 02:20:47;;;;;;;6.15;4.82;;;;;;;0.09;74.45;103075.34;5267636;28;20120;-70
2021/04/14 02:23:25;;;;;;;7.20;4.90;;;;;;;0.15;74.40;103071.84;5264656;28;20385;-70
2021/04/14 02:25:59;;;;;;;7.47;5.10;;;;;;;0.18;74.11;103072.69;5262617;28;20485;-69
2021/04/14 02:28:30;;;;;;;6.70;5.25;;;;;;;0.18;74.54;103075.28;5264753;28;20043;-69
2021/04/14 02:31:03;;;;;;;11.00;5.65;;;;;;;0.23;73.64;103068.41;5244868;28;20372;-70
2021/04/14 02:33:36;;;;;;;11.20;4.97;;;;;;;0.25;74.36;103068.38;5264282;28;20037;-69
2021/04/14 02:36:08;;;;;;;8.95;5.15;;;;;;;0.27;74.25;103065.81;5266333;28;20502;-71
2021/04/14 02:38:39;;;;;;;12.55;5.90;;;;;;;0.32;73.99;103069.19;5265504;28;20040;-70
2021/04/14 02:41:11;;;;;;;10.10;5.55;;;;;;;0.29;75.06;103066.63;5266019;28;20037;-69
2021/04/14 02:43:42;;;;;;;9.75;5.35;;;;;;;0.26;75.10;103069.22;5247586;28;20037;-70
2021/04/14 02:46:13;;;;;;;9.40;5.80;;;;;;;0.28;75.20;103070.09;5268127;28;20552;-70
2021/04/14 02:48:45;;;;;;;9.50;5.57;;;;;;;0.27;75.57;103061.50;5266162;28;20397;-70
2021/04/14 02:51:16;;;;;;;8.77;5.82;;;;;;;0.32;74.83;103058.88;5267452;28;20148;-68
2021/04/14 02:53:48;;;;;;;12.82;6.00;;;;;;;0.35;74.67;103057.13;5266751;28;20502;-69
2021/04/14 02:56:21;;;;;;;10.18;5.03;;;;;;;0.41;74.34;103057.09;5264552;28;20067;-69
2021/04/14 02:58:52;;;;;;;13.30;5.60;;;;;;;0.44;74.64;103046.75;5247340;28;20031;-71
2021/04/14 03:01:26;;;;;;;6.93;5.15;;;;;;;0.50;74.91;103047.59;5267425;28;20028;-71
2021/04/14 03:03:57;;;;;;;10.05;5.22;;;;;;;0.46;75.07;103045.03;5266383;28;20036;-71
2021/04/14 03:06:29;;;;;;;9.90;5.78;;;;;;;0.47;74.62;103049.31;5265944;28;20029;-69
2021/04/14 03:09:01;;;;;;;10.38;5.63;;;;;;;0.42;73.93;103035.59;5268642;28;20032;-71
2021/04/14 03:11:32;;;;;;;11.27;5.88;;;;;;;0.45;74.99;103050.19;5265559;28;20036;-70
2021/04/14 03:14:03;;;;;;;8.32;5.18;;;;;;;0.44;74.78;103051.06;5264837;28;20520;-70
2021/04/14 03:16:35;;;;;;;8.23;5.45;;;;;;;0.52;74.58;103051.84;5268040;28;20486;-71
2021/04/14 03:19:06;;;;;;;13.18;5.05;;;;;;;0.46;74.52;103047.59;5265585;28;20024;-70
2021/04/14 03:21:38;;;;;;;11.13;5.63;;;;;;;0.41;73.74;103033.88;5267494;28;20048;-70
2021/04/14 03:24:09;;;;;;;9.15;5.03;;;;;;;0.47;73.58;103036.41;5266657;28;20040;-69
2021/04/14 03:26:40;;;;;;;12.35;5.65;;;;;;;0.44;73.73;103035.59;5266630;28;20053;-70
2021/04/14 03:29:12;;;;;;;11.52;6.30;;;;;;;0.47;74.24;103043.31;5266146;28;20028;-69
2021/04/14 03:31:43;;;;;;;9.35;5.78;;;;;;;0.46;74.08;103039.88;5264066;28;20059;-71
2021/04/14 03:34:14;;;;;;;15.15;6.03;;;;;;;0.46;74.30;103044.19;5267096;28;20363;-70
2021/04/14 03:36:46;;;;;;;7.72;5.32;;;;;;;0.46;74.92;103047.59;5266494;28;20053;-70
2021/04/14 03:39:17;;;;;;;10.63;6.10;;;;;;;0.50;74.63;103048.44;5266848;28;20425;-70
2021/04/14 03:41:48;;;;;;;15.38;5.93;;;;;;;0.45;75.58;103048.44;5263746;28;20489;-70
2021/04/14 03:44:20;;;;;;;8.27;5.35;;;;;;;0.47;74.81;103048.47;5265178;28;20032;-68
2021/04/14 03:46:51;;;;;;;10.73;6.00;;;;;;;0.53;74.84;103039.81;5265863;28;20021;-70
2021/04/14 03:49:22;;;;;;;9.43;5.57;;;;;;;0.53;74.94;103039.81;5266420;28;20032;-71
2021/04/14 03:51:54;;;;;;;14.93;6.13;;;;;;;0.52;74.90;103043.25;5266181;28;20299;-68
2021/04/14 03:54:25;;;;;;;9.02;5.45;;;;;;;0.50;74.68;103037.28;5266912;28;20036;-71
2021/04/14 03:57:00;;;;;;;8.95;5.63;;;;;;;0.64;75.60;103040.59;5265531;28;20078;-70
2021/04/14 03:59:31;;;;;;;10.32;5.75;;;;;;;0.54;76.06;103042.41;5264120;28;20103;-70
2021/04/14 04:02:02;;;;;;;11.40;6.05;;;;;;;0.50;75.68;103039.84;5260503;28;20039;-70
2021/04/14 04:04:33;;;;;;;14.57;6.72;;;;;;;0.55;74.93;103038.94;5264694;28;20036;-71
2021/04/14 04:07:05;;;;;;;8.82;5.72;;;;;;;0.48;75.44;103043.28;5265288;28;20020;-68
2021/04/14 04:09:36;;;;;;;10.55;6.18;;;;;;;0.42;75.90;103033.03;5264611;28;20089;-70
2021/04/14 04:12:09;;;;;;;15.15;6.03;;;;;;;0.38;76.54;103033.03;5266363;28;20032;-70
2021/04/14 04:14:51;;;;;;;10.60;7.38;;;;;;;0.33;77.07;103030.50;5264467;28;20035;-70
2021/04/14 04:17:22;;;;;;;12.88;6.63;;;;;;;0.30;76.93;103037.41;5265238;28;20039;-70
2021/04/14 04:19:53;;;;;;;13.75;6.35;;;;;;;0.29;76.48;103035.69;5267023;28;20033;-70
2021/04/14 04:22:25;;;;;;;11.18;6.70;;;;;;;0.24;77.40;103030.56;5266785;28;20020;-70
2021/04/14 04:24:56;;;;;;;10.98;6.13;;;;;;;0.20;77.54;103036.63;5264472;28;20393;-69
2021/04/14 04:27:27;;;;;;;8.77;6.63;;;;;;;0.15;77.29;103041.81;5266143;28;20524;-70
2021/04/14 04:29:58;;;;;;;15.57;6.65;;;;;;;0.18;77.04;103044.34;5265044;28;20369;-72
2021/04/14 04:32:30;;;;;;;17.73;7.38;;;;;;;0.33;77.38;103045.97;5265879;28;20058;-71
2021/04/14 04:35:03;;;;;;;10.93;6.70;;;;;;;0.19;76.99;103042.63;5263253;28;20024;-71
2021/04/14 04:37:34;;;;;;;;;;;;;;;0.39;74.79;103039.94;5263595;28;20149;-70
2021/04/14 04:40:07;;;;;;;10.20;6.00;;;;;;;0.17;77.06;103034.06;5265998;28;20004;-71
2021/04/14 04:42:39;;;;;;;11.13;6.93;;;;;;;0.17;76.68;103041.78;5267077;28;20349;-70
2021/04/14 04:45:11;;;;;;;9.73;6.28;;;;;;;0.14;76.45;103031.50;5247516;28;20466;-69
2021/04/14 04:47:43;;;;;;;13.68;6.38;;;;;;;0.17;76.47;103041.78;5264686;28;20506;-70
2021/04/14 04:50:17;;;;;;;13.25;6.38;;;;;;;0.16;76.97;103045.25;5265888;28;20028;-70
2021/04/14 04:52:48;;;;;;;12.85;6.22;;;;;;;0.12;77.18;103036.66;5262643;28;20388;-70
2021/04/14 04:55:20;;;;;;;11.68;7.30;;;;;;;0.14;76.40;103039.22;5265572;28;20025;-70
2021/04/14 04:57:51;;;;;;;9.52;6.10;;;;;;;0.15;77.02;103038.34;5261948;28;20040;-71
2021/04/14 05:00:23;;;;;;;10.07;7.30;;;;;;;0.18;76.83;103044.34;5265681;28;20033;-69
2021/04/14 05:02:55;;;;;;;12.57;6.40;;;;;;;0.16;76.72;103038.34;5264447;28;20040;-70
2021/04/14 05:05:29;;;;;;;7.72;6.43;;;;;;;0.18;76.37;103036.59;5264718;28;20030;-69
2021/04/14 05:08:00;;;;;;;;;;;;;;;0.39;74.72;103045.09;5263884;28;20060;-69
2021/04/14 05:10:32;;;;;;;12.80;7.40;;;;;;;0.24;75.42;103041.75;5265907;28;20372;-72
2021/04/14 05:13:06;;;;;;;9.35;7.45;;;;;;;0.22;75.59;103040.03;5262833;28;20091;-69
2021/04/14 05:15:39;;;;;;;15.30;6.68;;;;;;;0.20;75.63;103047.78;5264921;28;20060;-69
2021/04/14 05:18:10;;;;;;;11.68;6.80;;;;;;;0.20;76.07;103054.66;5262879;28;20490;-69
2021/04/14 05:20:43;;;;;;;9.57;6.68;;;;;;;0.27;75.70;103045.19;5260580;28;20112;-69
2021/04/14 05:23:14;;;;;;;10.93;7.28;;;;;;;0.26;75.60;103046.03;5268744;28;20036;-69
2021/04/14 05:25:46;;;;;;;12.43;7.10;;;;;;;0.28;75.67;103057.19;5268914;28;20020;-69
2021/04/14 05:28:21;;;;;;;10.38;6.93;;;;;;;0.31;75.36;103054.59;5268486;28;20608;-69
2021/04/14 05:30:53;;;;;;;12.02;7.03;;;;;;;0.32;75.67;103052.00;5266976;28;20375;-69
2021/04/14 05:33:25;;;;;;;11.40;7.63;;;;;;;0.36;75.60;103056.25;5268373;28;20393;-68
2021/04/14 05:35:56;;;;;;;14.60;7.32;;;;;;;0.41;75.85;103062.25;5268732;28;20044;-70
2021/04/14 05:38:28;;;;;;;14.38;7.47;;;;;;;0.44;74.93;103057.06;5267807;28;20078;-69
2021/04/14 05:40:59;;;;;;;11.73;7.28;;;;;;;0.51;74.96;103054.47;5266511;28;20031;-69
2021/04/14 05:43:35;;;;;;;13.27;6.65;;;;;;;0.62;74.56;103062.97;5268471;28;20040;-72
2021/04/14 05:46:10;;;;;;;10.93;7.78;;;;;;;0.68;74.82;103055.16;5268859;28;20478;-68
2021/04/14 05:48:44;;;;;;;13.45;8.52;;;;;;;0.75;75.08;103066.31;5268146;28;20033;-69
2021/04/14 05:51:23;;;;;;;13.32;7.50;;;;;;;0.87;74.68;103073.94;5268310;28;20052;-70
2021/04/14 05:53:54;;;;;;;9.07;7.32;;;;;;;0.89;75.52;103073.06;5267146;28;20033;-69
2021/04/14 05:56:28;;;;;;;15.50;8.98;;;;;;;0.96;75.29;103079.03;5267134;28;20021;-69
2021/04/14 05:59:00;;;;;;;;;;;;;;;1.16;74.42;103089.16;5268919;28;20027;-69
2021/04/14 06:01:34;;;;;;;13.30;8.65;;;;;;;1.07;75.90;103084.94;5267998;28;19916;-69
2021/04/14 06:04:05;;;;;;;12.45;7.68;;;;;;;1.17;76.39;103086.56;5265588;28;20052;-69
2021/04/14 06:06:37;;;;;;;14.80;8.05;;;;;;;1.20;76.42;103089.13;5268546;28;20128;-68
2021/04/14 06:09:09;;;;;;;11.70;8.15;;;;;;;1.29;76.43;103092.47;5266488;28;20075;-69
2021/04/14 06:11:40;;;;;;;12.35;8.70;;;;;;;1.34;76.16;103093.31;5265102;28;20048;-69
2021/04/14 06:14:11;;;;;;;16.17;8.98;;;;;;;1.39;76.19;103091.53;5263413;28;20146;-68
2021/04/14 06:16:43;;;;;;;13.43;8.23;;;;;;;1.44;75.87;103092.34;5263075;28;20096;-70
2021/04/14 06:19:14;;;;;;;13.35;8.20;;;;;;;1.46;75.19;103099.19;5249159;28;20070;-69
2021/04/14 06:21:45;;;;;;;13.68;8.07;;;;;;;1.55;75.56;103093.06;5265304;28;20030;-69
2021/04/14 06:24:17;;;;;;;12.75;7.93;;;;;;;1.58;74.77;103093.03;5263384;28;20481;-69
2021/04/14 06:26:51;;;;;;;12.65;7.43;;;;;;;1.63;74.44;103093.84;5260880;28;20282;-68
2021/04/14 06:29:22;;;;;;;15.00;8.20;;;;;;;1.68;74.10;103092.06;5266767;28;20028;-69
2021/04/14 06:31:55;;;;;;;15.77;8.15;;;;;;;1.78;73.50;103087.66;5264724;28;20024;-68
2021/04/14 06:34:28;;;;;;;12.73;8.48;;;;;;;1.84;73.88;103086.72;5264501;28;20020;-69
2021/04/14 06:37:00;;;;;;;11.27;7.63;;;;;;;1.96;73.32;103094.31;5260450;28;20059;-70
2021/04/14 06:39:35;;;;;;;12.18;8.13;;;;;;;2.06;73.29;103090.75;5263598;28;20028;-70
2021/04/14 06:42:28;;;;;;;13.02;8.60;;;;;;;2.18;71.71;103097.47;5263648;28;20094;-68
2021/04/14 06:45:08;;;;;;;14.80;8.38;;;;;;;2.28;72.20;103090.47;5265453;28;20120;-69
2021/04/14 06:47:42;;;;;;;11.75;8.02;;;;;;;2.39;71.34;103091.16;5265654;28;20470;-68
2021/04/14 06:50:40;;;;;;;15.10;8.02;;;;;;;2.59;69.81;103094.28;5259989;28;20028;-69
2021/04/14 06:53:30;;;;;;;11.55;8.25;;;;;;;2.64;69.88;103089.88;5256296;28;20028;-70
2021/04/14 06:56:14;;;;;;;13.80;7.80;;;;;;;2.76;68.38;103094.00;5260030;28;20040;-69
2021/04/14 06:58:50;;;;;;;14.68;9.13;;;;;;;2.86;68.41;103092.16;5261974;28;20024;-69
2021/04/14 07:01:27;;;;;;;14.38;10.23;;;;;;;3.03;68.13;103091.84;5266289;28;20482;-68
2021/04/14 07:04:06;;;;;;;11.38;9.27;;;;;;;3.24;68.69;103088.91;5266103;28;20016;-69
2021/04/14 07:06:42;;;;;;;13.95;9.25;;;;;;;3.39;67.41;103093.78;5267343;28;20063;-69
2021/04/14 07:09:36;;;;;;;14.68;10.57;;;;;;;3.55;66.88;103096.94;5263796;28;20037;-68
2021/04/14 07:12:08;;;;;;;;;;;;;;;3.77;67.27;103094.78;5259601;28;20525;-68
2021/04/14 07:14:40;;;;;;;16.10;11.93;;;;;;;3.93;65.85;103091.88;5263500;28;19931;-69
2021/04/14 07:17:39;;;;;;;14.35;10.23;;;;;;;4.22;66.11;103091.25;5263446;28;20379;-68
2021/04/14 07:20:20;;;;;;;13.52;8.32;;;;;;;4.26;64.70;103095.50;5242890;28;20245;-69
2021/04/14 07:23:11;;;;;;;11.27;8.05;;;;;;;4.42;64.82;103086.47;5265477;28;20591;-69
2021/04/14 07:26:04;;;;;;;13.00;8.07;;;;;;;4.63;65.41;103090.31;5264420;28;20032;-70
2021/04/14 07:28:41;;;;;;;12.43;8.18;;;;;;;4.73;64.59;103093.53;5261109;28;20052;-71
2021/04/14 07:31:24;;;;;;;14.43;8.68;;;;;;;4.85;64.35;103094.09;5264286;28;20075;-68
2021/04/14 07:34:16;;;;;;;10.10;7.82;;;;;;;4.99;64.14;103088.53;5263910;28;20032;-69
2021/04/14 07:37:00;;;;;;;9.38;7.03;;;;;;;5.13;63.95;103086.44;5263983;28;20055;-69
2021/04/14 07:39:49;;;;;;;9.07;7.28;;;;;;;5.29;62.86;103092.09;5265615;28;20060;-69
2021/04/14 07:42:38;;;;;;;8.90;6.95;;;;;;;5.36;63.26;103077.19;5264947;28;20032;-69
2021/04/14 07:45:31;;;;;;;12.13;7.03;;;;;;;5.42;62.92;103082.25;5260711;28;20472;-69
2021/04/14 07:48:07;;;;;;;12.57;6.97;;;;;;;5.59;62.47;103086.97;5264054;28;20071;-69
2021/04/14 07:50:38;;;;;;;12.38;6.80;;;;;;;5.59;59.98;103082.59;5261533;28;20024;-71
2021/04/14 07:53:19;;;;;;;12.63;6.27;;;;;;;5.75;60.59;103082.16;5260405;28;20033;-69
2021/04/14 07:56:21;;;;;;;10.63;6.93;;;;;;;5.93;60.26;103092.09;5264644;28;20315;-69
2021/04/14 07:59:10;;;;;;;14.77;7.38;;;;;;;6.14;61.29;103087.13;5263312;28;20116;-69
2021/04/14 08:01:54;;;;;;;12.35;6.70;;;;;;;6.19;60.36;103077.44;5261776;28;20029;-69
2021/04/14 08:04:27;;;;;;;13.20;6.35;;;;;;;6.24;58.76;103084.19;5262848;28;20028;-69
2021/04/14 08:07:34;;;;;;;12.35;6.85;;;;;;;6.39;59.00;103087.25;5261018;28;20040;-70
2021/04/14 08:10:22;;;;;;;10.35;5.80;;;;;;;6.46;58.91;103080.94;5259561;28;20378;-70
2021/04/14 08:13:02;;;;;;;13.82;6.07;;;;;;;6.44;58.14;103083.59;5263087;28;20035;-69
2021/04/14 08:15:41;;;;;;;9.45;5.43;;;;;;;6.51;58.88;103085.09;5263704;28;20489;-69
2021/04/14 08:18:24;;;;;;;9.43;5.68;;;;;;;6.55;56.79;103089.31;5241058;28;20036;-69
2021/04/14 08:21:18;;;;;;;11.95;6.28;;;;;;;6.68;58.06;103092.38;5257531;28;20039;-70
2021/04/14 08:23:55;;;;;;;7.95;5.47;;;;;;;6.76;57.03;103092.13;5243740;28;20390;-71
2021/04/14 08:26:29;;;;;;;10.15;6.05;;;;;;;6.80;57.27;103091.97;5262726;28;20467;-69
2021/04/14 08:29:13;;;;;;;8.73;6.43;;;;;;;6.97;58.70;103087.94;5262101;28;20040;-69
2021/04/14 08:31:45;;;;;;;11.88;6.80;;;;;;;7.00;55.48;103096.50;5258489;28;20021;-71
2021/04/14 08:34:32;;;;;;;13.88;8.27;;;;;;;7.21;56.81;103089.72;5260711;28;20029;-70
2021/04/14 08:37:19;;;;;;;16.92;8.80;;;;;;;7.32;57.07;103103.25;5261331;28;20091;-70
2021/04/14 08:39:53;;;;;;;11.05;7.10;;;;;;;7.47;55.24;103096.63;5256958;28;20033;-69
2021/04/14 08:42:31;;;;;;;8.95;6.20;;;;;;;7.51;54.85;103103.44;5239698;28;20076;-70
2021/04/14 08:45:15;;;;;;;11.15;6.55;;;;;;;7.54;54.43;103098.13;5258609;28;20036;-70
2021/04/14 08:48:12;;;;;;;10.48;6.05;;;;;;;7.65;54.47;103099.47;5257844;28;20025;-69
2021/04/14 08:50:51;;;;;;;12.25;6.35;;;;;;;7.77;53.92;103091.22;5259707;28;20036;-69
2021/04/14 08:53:31;;;;;;;8.95;6.53;;;;;;;7.91;52.54;103101.97;5259759;28;20125;-69
2021/04/14 08:56:03;;;;;;;11.82;6.65;;;;;;;8.03;51.35;103095.44;5261923;28;20036;-69
2021/04/14 08:58:35;;;;;;;8.88;6.20;;;;;;;8.21;51.22;103097.34;5266134;28;20021;-69
2021/04/14 09:01:13;;;;;;;8.88;5.88;;;;;;;8.31;49.95;103099.63;5266965;28;20676;-68
2021/04/14 09:03:47;;;;;;;9.10;6.47;;;;;;;8.23;51.24;103098.16;5263685;28;20139;-69
2021/04/14 09:06:20;;;;;;;9.15;5.45;;;;;;;8.20;49.18;103098.25;5267509;28;20014;-70
2021/04/14 09:08:56;;;;;;;9.32;5.75;;;;;;;8.23;48.47;103087.69;5266761;28;20024;-69
2021/04/14 09:11:30;;;;;;;9.52;6.43;;;;;;;8.36;47.83;103093.28;5261991;28;20489;-69
2021/04/14 09:14:13;;;;;;;9.15;5.40;;;;;;;8.31;47.03;103097.00;5263477;28;20463;-70
2021/04/14 09:17:15;;;;;;;7.25;5.32;;;;;;;8.39;47.52;103093.19;5266703;28;20024;-69
2021/04/14 09:19:48;;;;;;;9.10;4.95;;;;;;;8.39;45.98;103092.34;5251766;28;20383;-70
2021/04/14 09:22:28;;;;;;;8.68;5.68;;;;;;;8.70;47.53;103097.19;5262826;28;20406;-69
2021/04/14 09:25:02;;;;;;;9.57;5.20;;;;;;;8.85;46.23;103099.16;5261405;28;20440;-69
2021/04/14 09:27:36;;;;;;;7.03;5.57;;;;;;;8.87;46.38;103099.97;5261152;28;20478;-69
2021/04/14 09:30:26;;;;;;;8.35;5.00;;;;;;;9.04;46.05;103096.63;5261200;28;20045;-68
2021/04/14 09:33:14;;;;;;;11.40;5.93;;;;;;;9.05;46.59;103093.09;5253027;28;20028;-69
2021/04/14 09:35:51;;;;;;;8.10;5.60;;;;;;;9.06;47.14;103094.81;5265251;28;20021;-69
2021/04/14 09:38:33;;;;;;;11.13;6.30;;;;;;;9.17;44.85;103094.38;5263637;28;20048;-69
2021/04/14 09:41:11;;;;;;;9.55;6.00;;;;;;;9.22;44.45;103084.56;5265307;28;20029;-69
2021/04/14 09:43:45;;;;;;;8.98;4.93;;;;;;;9.46;43.50;103090.47;5260692;28;20024;-69
2021/04/14 09:46:37;;;;;;;8.63;4.90;;;;;;;9.72;44.14;103089.31;5262643;28;20139;-69
2021/04/14 09:49:14;;;;;;;8.88;5.07;;;;;;;9.59;42.49;103077.72;5263098;28;20032;-69
2021/04/14 09:51:57;;;;;;;10.70;6.00;;;;;;;9.90;43.12;103085.84;5267079;28;20029;-69
2021/04/14 09:54:36;;;;;;;9.65;5.93;;;;;;;9.92;43.55;103086.63;5264305;28;20047;-69
2021/04/14 09:57:19;;;;;;;10.63;6.65;;;;;;;9.91;42.68;103081.47;5266551;28;20036;-68
2021/04/14 09:59:51;;;;;;;8.10;6.10;;;;;;;10.16;42.81;103075.94;5265279;28;20028;-69
2021/04/14 10:02:23;;;;;;;14.23;8.65;;;;;;;10.15;45.48;103082.94;5265556;28;20033;-68
2021/04/14 10:04:59;;;;;;;13.02;8.93;;;;;;;10.01;46.44;103071.41;5267474;28;20028;-69
2021/04/14 10:07:36;;;;;;;15.80;10.30;;;;;;;9.75;47.75;103078.69;5261571;28;20119;-69
2021/04/14 10:10:17;;;;;;;12.90;9.70;;;;;;;9.55;48.63;103081.38;5267160;28;20095;-69
2021/04/14 10:12:52;;;;;;;13.50;10.23;;;;;;;9.29;48.67;103074.69;5267156;28;20056;-69
2021/04/14 10:15:37;;;;;;;11.80;9.93;;;;;;;9.22;49.67;103061.00;5260281;28;20025;-69
2021/04/14 10:18:17;;;;;;;15.05;9.52;;;;;;;9.26;49.47;103073.03;5266279;28;20051;-69
2021/04/14 10:20:50;;;;;;;11.93;9.90;;;;;;;9.12;49.10;103083.25;5264678;28;20036;-69
2021/04/14 10:23:24;;;;;;;11.85;9.52;;;;;;;9.01;49.30;103076.69;5262007;28;20029;-69
2021/04/14 10:26:07;;;;;;;13.32;10.88;;;;;;;9.09;49.55;103071.16;5266004;28;20025;-69
2021/04/14 10:28:41;;;;;;;18.80;9.73;;;;;;;9.12;48.21;103068.41;5263004;28;20111;-69
2021/04/14 10:31:21;;;;;;;12.13;9.18;;;;;;;9.23;47.42;103063.53;5264183;28;20103;-69
2021/04/14 10:33:52;;;;;;;13.43;9.73;;;;;;;9.54;46.37;103064.81;5264685;28;20028;-70
2021/04/14 10:36:30;;;;;;;11.70;8.95;;;;;;;9.86;45.86;103062.50;5264765;28;20079;-69
2021/04/14 10:39:13;;;;;;;13.20;8.55;;;;;;;10.16;46.19;103049.75;5260094;28;20021;-69
2021/04/14 10:41:46;;;;;;;12.20;8.95;;;;;;;10.28;45.20;103049.19;5263212;28;20124;-69
2021/04/14 10:44:24;;;;;;;13.20;8.75;;;;;;;10.24;42.97;103047.59;5264796;28;20029;-69
2021/04/14 10:47:01;;;;;;;13.35;8.82;;;;;;;10.27;43.39;103047.50;5264273;28;20029;-69
2021/04/14 10:49:36;;;;;;;10.23;7.70;;;;;;;9.94;40.35;103048.13;5265804;28;20108;-69
2021/04/14 10:52:19;;;;;;;12.35;9.80;;;;;;;9.93;44.80;103049.06;5259152;28;20291;-69
2021/04/14 10:54:55;;;;;;;10.85;8.52;;;;;;;9.81;44.56;103057.50;5262760;28;20402;-69
2021/04/14 10:57:28;;;;;;;15.30;10.27;;;;;;;9.63;45.13;103053.09;5245986;28;20055;-70
2021/04/14 11:00:11;;;;;;;;;;;;;;;9.90;46.02;103057.06;5249000;28;20060;-69
2021/04/14 11:02:46;;;;;;;12.05;9.10;;;;;;;9.34;46.13;103062.25;5258212;28;19925;-69
2021/04/14 11:05:22;;;;;;;10.77;8.00;;;;;;;9.06;46.23;103059.97;5262724;28;20517;-69
2021/04/14 11:07:55;;;;;;;12.02;8.73;;;;;;;8.88;45.89;103059.84;5265763;28;20045;-69
2021/04/14 11:10:28;;;;;;;;;;;;;;;9.16;46.34;103053.41;5265124;28;20469;-69
2021/04/14 11:13:01;;;;;;;11.48;8.48;;;;;;;8.61;47.36;103048.78;5263272;28;19917;-69
2021/04/14 11:15:40;;;;;;;12.23;8.17;;;;;;;8.67;47.44;103060.72;5263310;28;20027;-69
2021/04/14 11:18:14;;;;;;;12.00;8.57;;;;;;;8.55;46.47;103056.84;5259827;28;20040;-69
2021/04/14 11:21:01;;;;;;;13.27;8.38;;;;;;;8.62;48.81;103054.84;5260207;28;20538;-69
2021/04/14 11:23:36;;;;;;;11.43;7.95;;;;;;;8.60;46.45;103052.31;5263927;28;20032;-69
2021/04/14 11:26:20;;;;;;;10.60;8.02;;;;;;;8.65;46.75;103052.13;5262667;28;20047;-69
2021/04/14 11:28:54;;;;;;;10.23;8.23;;;;;;;8.60;46.59;103049.69;5262617;28;20414;-69
2021/04/14 11:31:40;;;;;;;12.73;7.93;;;;;;;8.76;47.19;103052.53;5262854;28;20025;-69
2021/04/14 11:34:21;;;;;;;10.40;8.35;;;;;;;8.80;47.55;103050.63;5263398;28;20128;-68
2021/04/14 11:36:57;;;;;;;15.10;8.40;;;;;;;8.90;47.47;103046.69;5263193;28;20056;-70
2021/04/14 11:39:35;;;;;;;20.45;7.95;;;;;;;8.90;45.05;103036.22;5249768;28;20410;-69
2021/04/14 11:42:15;;;;;;;9.63;6.43;;;;;;;9.05;45.31;103032.13;5263188;28;20032;-69
2021/04/14 11:44:53;;;;;;;10.77;6.03;;;;;;;9.22;44.02;103027.00;5259931;28;20152;-69
2021/04/14 11:47:34;;;;;;;10.05;5.07;;;;;;;9.22;43.61;103029.63;5263968;28;20037;-69
2021/04/14 11:50:28;;;;;;;8.00;5.95;;;;;;;9.50;44.85;103017.00;5264281;28;20028;-69
2021/04/14 11:53:01;;;;;;;8.45;5.13;;;;;;;9.57;43.27;103020.19;5263866;28;20082;-69
2021/04/14 11:55:38;;;;;;;7.35;4.60;;;;;;;9.60;43.36;103017.44;5264425;28;20470;-69
2021/04/14 11:58:24;;;;;;;12.43;5.07;;;;;;;9.92;41.90;103013.28;5262085;28;20040;-69
2021/04/14 12:00:56;;;;;;;7.43;5.15;;;;;;;9.97;42.58;103002.63;5263675;28;20556;-69
2021/04/14 12:03:33;;;;;;;8.18;4.80;;;;;;;10.13;41.71;102994.88;5263927;28;20029;-69
2021/04/14 12:06:06;;;;;;;8.20;4.93;;;;;;;10.24;40.77;102995.22;5259772;28;20640;-69
2021/04/14 12:08:37;;;;;;;9.60;5.45;;;;;;;10.26;40.47;102993.38;5259809;28;20542;-69